Αναφορές METAR

 

LGKZ - Kozani (civ/Army, Greece
Distance from station: ΝΔ 41km
Ενημερώθηκε: 25/06/2017 14:50
Αίθριος
Αίθριος
 Ανεμος από calm
Ανεμος: Απνοια
Θερμοκρασία: 31°C
Σημείο Δρόσου: 12°C
Υγρασία: 31%
Βαρόμετρο: 1017 hPa
Περίληψη: Αίθριος
Visibility: greater than 10 km
2017/06/25 11:50 LGKZ 251150Z 00000KT CAVOK 31/12 Q1017
LGTS - Thessaloniki/Mik, Greece
Distance from station: Α 64km
Ενημερώθηκε: 25/06/2017 14:50
Few Clouds
Few Clouds
 Ανεμος από Δ
Ανεμος: Δ 15 km/h
Θερμοκρασία: 34°C
Σημείο Δρόσου: 13°C
Υγρασία: 28%
Βαρόμετρο: 1012 hPa
Clouds: Few Clouds
Visibility: 10 km
Cloud details: Few Clouds 914 m
2017/06/25 11:50 LGTS 251150Z 27008KT 9999 FEW030 34/13 Q1012 NOSIG
 
LGIO - Ioannina, Greece
Distance from station: ΝΔ 149km
Ενημερώθηκε: 25/06/2017 14:50
Μερικώς νεφελώδης
Μερικώς νεφελώδης
 Ανεμος από varies
Ανεμος: varies 0 km/h
Θερμοκρασία: 33°C
Σημείο Δρόσου: 16°C
Υγρασία: 36%
Βαρόμετρο: 1016 hPa
Clouds: Μερικώς νεφελώδης
Visibility: 10 km
Cloud details: Few Clouds 914 m
Μερικώς νεφελώδης 1524 m
2017/06/25 11:50 LGIO 251150Z /////KT 9999 FEW030TCU SCT050 33/16 Q1016
LGBL - Nea Anchialos, Greece
Distance from station: ΝΝΑ 154km
Ενημερώθηκε: 25/06/2017 14:50
Few Clouds
Few Clouds
 Ανεμος από Α
Ανεμος: Α 20 km/h
Θερμοκρασία: 32°C
Heat Index: 33°C
Σημείο Δρόσου: 18°C
Υγρασία: 43%
Βαρόμετρο: 1012 hPa
Clouds: Few Clouds
Visibility: 10 km
Cloud details: Few Clouds 1067 m
2017/06/25 11:50 LGBL 251150Z 09011KT 9999 FEW035 32/18 Q1012
 
LGSK - Skiathos Island, Greece
Distance from station: ΝΑ 185km
Ενημερώθηκε: 25/06/2017 14:50
Αίθριος
Αίθριος
 Ανεμος από Β
Ανεμος: Β 9 km/h
Θερμοκρασία: 29°C
Heat Index: 30°C
Σημείο Δρόσου: 19°C
Υγρασία: 55%
Βαρόμετρο: 1013 hPa
Περίληψη: Αίθριος
Visibility: greater than 10 km
2017/06/25 11:50 LGSK 251150Z 01005KT CAVOK 29/19 Q1013
LGKV - Kavala/Chrisoupo, Greece
Distance from station: ΑΒΑ 208km
Ενημερώθηκε: 25/06/2017 14:50
Few Clouds
Few Clouds
 Ανεμος από ΝΝΑ
Ανεμος: ΝΝΑ 9 km/h
Θερμοκρασία: 31°C
Heat Index: 32°C
Σημείο Δρόσου: 18°C
Υγρασία: 46%
Βαρόμετρο: 1013 hPa
Clouds: Few Clouds
Visibility: 10 km
Cloud details: Few Clouds 1067 m
2017/06/25 11:50 LGKV 251150Z 15005KT 9999 FEW035 31/18 Q1013
 
LGPZ - Preveza/Aktion, Greece
Distance from station: ΝΔ 217km
Ενημερώθηκε: 25/06/2017 14:50
Few Clouds
Few Clouds
 Ανεμος από Δ
Ανεμος: Δ 17 km/h
Θερμοκρασία: 30°C
Heat Index: 32°C
Σημείο Δρόσου: 20°C
Υγρασία: 55%
Βαρόμετρο: 1013 hPa
Clouds: Few Clouds
Visibility: 10 km
Cloud details: Few Clouds 610 m
2017/06/25 11:50 LGPZ 251150Z 26009KT 9999 FEW020 30/20 Q1013
LGKR - Ioannis Kapodist, Greece
Distance from station: ΔΝΔ 219km
Ενημερώθηκε: 25/06/2017 14:50
Few Clouds
Few Clouds
 Ανεμος από ΝΑ
Ανεμος: ΝΑ 11 km/h
Θερμοκρασία: 32°C
Heat Index: 37°C
Σημείο Δρόσου: 23°C
Υγρασία: 59%
Βαρόμετρο: 1013 hPa
Clouds: Few Clouds
Visibility: 10 km
Cloud details: Few Clouds 914 m
2017/06/25 11:50 LGKR 251150Z 14006KT 9999 FEW030TCU 32/23 Q1013 NOSIG
 
LGSY - Skiros, Greece
Distance from station: ΝΑ 261km
Ενημερώθηκε: 25/06/2017 14:50
Αίθριος
Αίθριος
 Ανεμος από Β
Ανεμος: Β 9 km/h
Θερμοκρασία: 30°C
Heat Index: 33°C
Σημείο Δρόσου: 22°C
Υγρασία: 62%
Βαρόμετρο: 1012 hPa
Περίληψη: Αίθριος
Visibility: greater than 10 km
2017/06/25 11:50 LGSY 251150Z 01005KT CAVOK 30/22 Q1012 BLU
LGLM - Limnos Island Ar, Greece
Distance from station: ΑΝΑ 266km
Ενημερώθηκε: 25/06/2017 14:50
Αίθριος
Αίθριος
 Ανεμος από ΒΒΑ
Ανεμος: ΒΒΑ 19 km/h
Θερμοκρασία: 31°C
Heat Index: 32°C
Σημείο Δρόσου: 18°C
Υγρασία: 46%
Βαρόμετρο: 1013 hPa
Περίληψη: Αίθριος
Visibility: greater than 10 km
2017/06/25 11:50 LGLM 251150Z 03010KT CAVOK 31/18 Q1013
 
LGRX - Araxos (civ/Afb), Greece
Distance from station: ΝΝΔ 271km
Ενημερώθηκε: 25/06/2017 14:50
Few Clouds
Few Clouds
 Ανεμος από Δ
Ανεμος: Δ 7 km/h
Θερμοκρασία: 31°C
Heat Index: 33°C
Σημείο Δρόσου: 20°C
Υγρασία: 52%
Βαρόμετρο: 1012 hPa
Clouds: Few Clouds
Visibility: 10 km
Cloud details: Few Clouds 914 m
2017/06/25 11:50 LGRX 251150Z 27004KT 9999 FEW030 31/20 Q1012
LGEL - Elefsis (hel-Afb, Greece
Distance from station: ΝΝΑ 297km
Ενημερώθηκε: 25/06/2017 14:50
Μερικώς νεφελώδης
Μερικώς νεφελώδης
 Ανεμος από ΝΔ
Ανεμος: ΝΔ 13 km/h
Θερμοκρασία: 36°C
Σημείο Δρόσου: 13°C
Υγρασία: 25%
Βαρόμετρο: 1012 hPa
Clouds: Μερικώς νεφελώδης
Visibility: 10 km
Cloud details: Μερικώς νεφελώδης 762 m
2017/06/25 11:50 LGEL 251150Z 23007KT 9999 SCT025 36/13 Q1012
 
LGAD - Andravida (civ/A, Greece
Distance from station: ΝΝΔ 301km
Ενημερώθηκε: 25/06/2017 14:50
Few Clouds
Few Clouds
 Ανεμος από ΒΔ
Ανεμος: ΒΔ 15 km/h
Θερμοκρασία: 31°C
Heat Index: 32°C
Σημείο Δρόσου: 17°C
Υγρασία: 43%
Βαρόμετρο: 1012 hPa
Clouds: Few Clouds
Visibility: 10 km
Cloud details: Few Clouds 762 m
2017/06/25 11:50 LGAD 251150Z 31008KT 9999 FEW025 31/17 Q1012
LGKF - Kefallinia, Greece
Distance from station: ΝΝΔ 305km
Ενημερώθηκε: 25/06/2017 14:50
Few Clouds
Few Clouds
 Ανεμος από Δ
Ανεμος: Δ 11 km/h
Θερμοκρασία: 30°C
Heat Index: 31°C
Σημείο Δρόσου: 19°C
Υγρασία: 52%
Βαρόμετρο: 1013 hPa
Clouds: Few Clouds
Visibility: 10 km
Cloud details: Few Clouds 549 m
2017/06/25 11:50 LGKF 251150Z 28006KT 9999 FEW018 30/19 Q1013